sensor_id;sensor_type;location;lat;lon;timestamp;P1;durP1;ratioP1;P2;durP2;ratioP2
20138;SDS011;10230;51.502;10.800;2023-04-15T00:00:41;2.37;;;1.33;;
20138;SDS011;10230;51.502;10.800;2023-04-15T00:03:07;2.60;;;1.13;;
20138;SDS011;10230;51.502;10.800;2023-04-15T00:05:33;2.57;;;1.60;;
20138;SDS011;10230;51.502;10.800;2023-04-15T00:08:00;2.20;;;1.57;;
20138;SDS011;10230;51.502;10.800;2023-04-15T00:10:26;2.97;;;1.30;;
20138;SDS011;10230;51.502;10.800;2023-04-15T00:12:52;2.63;;;1.23;;
20138;SDS011;10230;51.502;10.800;2023-04-15T00:15:18;1.47;;;1.30;;
20138;SDS011;10230;51.502;10.800;2023-04-15T00:17:44;2.07;;;1.50;;
20138;SDS011;10230;51.502;10.800;2023-04-15T00:20:10;1.27;;;1.10;;
20138;SDS011;10230;51.502;10.800;2023-04-15T00:22:37;1.50;;;1.40;;
20138;SDS011;10230;51.502;10.800;2023-04-15T00:25:03;2.87;;;1.20;;
20138;SDS011;10230;51.502;10.800;2023-04-15T00:27:29;1.40;;;0.90;;
20138;SDS011;10230;51.502;10.800;2023-04-15T00:29:55;1.67;;;1.47;;
20138;SDS011;10230;51.502;10.800;2023-04-15T00:32:21;1.60;;;1.20;;
20138;SDS011;10230;51.502;10.800;2023-04-15T00:34:47;2.20;;;1.47;;
20138;SDS011;10230;51.502;10.800;2023-04-15T00:37:13;2.90;;;1.70;;
20138;SDS011;10230;51.502;10.800;2023-04-15T00:39:39;2.73;;;1.43;;
20138;SDS011;10230;51.502;10.800;2023-04-15T00:42:06;2.00;;;1.80;;
20138;SDS011;10230;51.502;10.800;2023-04-15T00:44:32;1.90;;;1.50;;
20138;SDS011;10230;51.502;10.800;2023-04-15T00:46:59;2.07;;;1.70;;
20138;SDS011;10230;51.502;10.800;2023-04-15T00:49:26;1.07;;;0.97;;
20138;SDS011;10230;51.502;10.800;2023-04-15T00:51:53;2.07;;;1.60;;
20138;SDS011;10230;51.502;10.800;2023-04-15T00:54:20;1.73;;;1.63;;
20138;SDS011;10230;51.502;10.800;2023-04-15T00:56:46;3.77;;;2.00;;
20138;SDS011;10230;51.502;10.800;2023-04-15T00:59:12;2.17;;;1.57;;
20138;SDS011;10230;51.502;10.800;2023-04-15T01:01:39;1.70;;;1.43;;
20138;SDS011;10230;51.502;10.800;2023-04-15T01:04:05;2.47;;;1.90;;
20138;SDS011;10230;51.502;10.800;2023-04-15T01:06:34;2.67;;;2.27;;
20138;SDS011;10230;51.502;10.800;2023-04-15T01:09:00;2.17;;;1.97;;
20138;SDS011;10230;51.502;10.800;2023-04-15T01:11:27;2.63;;;1.40;;
20138;SDS011;10230;51.502;10.800;2023-04-15T01:13:53;2.33;;;1.70;;
20138;SDS011;10230;51.502;10.800;2023-04-15T01:16:21;3.93;;;2.20;;
20138;SDS011;10230;51.502;10.800;2023-04-15T01:18:47;2.30;;;1.90;;
20138;SDS011;10230;51.502;10.800;2023-04-15T01:21:13;2.00;;;1.60;;
20138;SDS011;10230;51.502;10.800;2023-04-15T01:23:39;2.40;;;1.80;;
20138;SDS011;10230;51.502;10.800;2023-04-15T01:26:06;2.13;;;1.70;;
20138;SDS011;10230;51.502;10.800;2023-04-15T01:28:36;3.10;;;1.93;;
20138;SDS011;10230;51.502;10.800;2023-04-15T01:31:09;2.93;;;1.90;;
20138;SDS011;10230;51.502;10.800;2023-04-15T01:33:35;1.83;;;1.67;;
20138;SDS011;10230;51.502;10.800;2023-04-15T01:36:02;2.43;;;2.10;;
20138;SDS011;10230;51.502;10.800;2023-04-15T01:38:28;3.57;;;1.67;;
20138;SDS011;10230;51.502;10.800;2023-04-15T01:40:54;3.00;;;2.00;;
20138;SDS011;10230;51.502;10.800;2023-04-15T01:43:21;1.83;;;1.43;;
20138;SDS011;10230;51.502;10.800;2023-04-15T01:45:47;3.20;;;1.60;;
20138;SDS011;10230;51.502;10.800;2023-04-15T01:48:13;2.00;;;1.60;;
20138;SDS011;10230;51.502;10.800;2023-04-15T01:50:39;2.03;;;1.20;;
20138;SDS011;10230;51.502;10.800;2023-04-15T01:53:05;2.23;;;1.63;;
20138;SDS011;10230;51.502;10.800;2023-04-15T01:55:31;6.37;;;1.70;;
20138;SDS011;10230;51.502;10.800;2023-04-15T01:57:57;1.70;;;1.23;;
20138;SDS011;10230;51.502;10.800;2023-04-15T02:00:23;2.47;;;1.90;;
20138;SDS011;10230;51.502;10.800;2023-04-15T02:02:49;2.97;;;2.23;;
20138;SDS011;10230;51.502;10.800;2023-04-15T02:05:15;3.07;;;1.70;;
20138;SDS011;10230;51.502;10.800;2023-04-15T02:07:41;2.63;;;1.70;;
20138;SDS011;10230;51.502;10.800;2023-04-15T02:10:08;2.00;;;1.50;;
20138;SDS011;10230;51.502;10.800;2023-04-15T02:12:34;3.07;;;1.53;;
20138;SDS011;10230;51.502;10.800;2023-04-15T02:15:00;3.70;;;1.63;;
20138;SDS011;10230;51.502;10.800;2023-04-15T02:17:26;2.10;;;1.90;;
20138;SDS011;10230;51.502;10.800;2023-04-15T02:19:54;2.77;;;2.10;;
20138;SDS011;10230;51.502;10.800;2023-04-15T02:22:21;2.63;;;2.13;;
20138;SDS011;10230;51.502;10.800;2023-04-15T02:24:47;4.10;;;2.30;;
20138;SDS011;10230;51.502;10.800;2023-04-15T02:27:15;2.10;;;1.40;;
20138;SDS011;10230;51.502;10.800;2023-04-15T02:29:42;2.37;;;1.83;;
20138;SDS011;10230;51.502;10.800;2023-04-15T02:32:09;3.77;;;1.87;;
20138;SDS011;10230;51.502;10.800;2023-04-15T02:34:36;2.33;;;1.77;;
20138;SDS011;10230;51.502;10.800;2023-04-15T02:37:05;3.83;;;2.67;;
20138;SDS011;10230;51.502;10.800;2023-04-15T02:39:31;3.50;;;2.27;;
20138;SDS011;10230;51.502;10.800;2023-04-15T02:41:57;3.07;;;2.10;;
20138;SDS011;10230;51.502;10.800;2023-04-15T02:44:24;3.83;;;2.27;;
20138;SDS011;10230;51.502;10.800;2023-04-15T02:46:51;3.00;;;2.37;;
20138;SDS011;10230;51.502;10.800;2023-04-15T02:49:19;5.00;;;2.80;;
20138;SDS011;10230;51.502;10.800;2023-04-15T02:51:45;2.77;;;2.40;;
20138;SDS011;10230;51.502;10.800;2023-04-15T02:54:18;5.43;;;2.80;;
20138;SDS011;10230;51.502;10.800;2023-04-15T02:56:44;4.27;;;2.40;;
20138;SDS011;10230;51.502;10.800;2023-04-15T02:59:11;5.00;;;2.87;;
20138;SDS011;10230;51.502;10.800;2023-04-15T03:01:37;4.33;;;2.70;;
20138;SDS011;10230;51.502;10.800;2023-04-15T03:04:03;4.17;;;2.90;;
20138;SDS011;10230;51.502;10.800;2023-04-15T03:06:29;4.73;;;3.17;;
20138;SDS011;10230;51.502;10.800;2023-04-15T03:08:55;5.53;;;3.57;;
20138;SDS011;10230;51.502;10.800;2023-04-15T03:11:21;5.70;;;3.60;;
20138;SDS011;10230;51.502;10.800;2023-04-15T03:13:47;5.63;;;3.87;;
20138;SDS011;10230;51.502;10.800;2023-04-15T03:16:13;5.97;;;3.27;;
20138;SDS011;10230;51.502;10.800;2023-04-15T03:18:40;6.27;;;4.27;;
20138;SDS011;10230;51.502;10.800;2023-04-15T03:21:06;5.90;;;3.70;;
20138;SDS011;10230;51.502;10.800;2023-04-15T03:23:32;5.77;;;3.73;;
20138;SDS011;10230;51.502;10.800;2023-04-15T03:26:00;6.07;;;3.93;;
20138;SDS011;10230;51.502;10.800;2023-04-15T03:28:26;6.20;;;4.10;;
20138;SDS011;10230;51.502;10.800;2023-04-15T03:30:53;4.87;;;3.77;;
20138;SDS011;10230;51.502;10.800;2023-04-15T03:33:19;7.60;;;4.07;;
20138;SDS011;10230;51.502;10.800;2023-04-15T03:35:45;6.27;;;4.10;;
20138;SDS011;10230;51.502;10.800;2023-04-15T03:38:11;7.07;;;4.40;;
20138;SDS011;10230;51.502;10.800;2023-04-15T03:40:39;8.60;;;5.07;;
20138;SDS011;10230;51.502;10.800;2023-04-15T03:43:05;8.33;;;5.30;;
20138;SDS011;10230;51.502;10.800;2023-04-15T03:45:31;7.13;;;4.70;;
20138;SDS011;10230;51.502;10.800;2023-04-15T03:47:57;7.00;;;4.70;;
20138;SDS011;10230;51.502;10.800;2023-04-15T03:50:23;7.83;;;5.27;;
20138;SDS011;10230;51.502;10.800;2023-04-15T03:52:49;7.40;;;4.70;;
20138;SDS011;10230;51.502;10.800;2023-04-15T03:55:15;6.93;;;4.60;;
20138;SDS011;10230;51.502;10.800;2023-04-15T03:57:41;8.53;;;5.53;;
20138;SDS011;10230;51.502;10.800;2023-04-15T04:00:08;7.70;;;5.10;;
20138;SDS011;10230;51.502;10.800;2023-04-15T04:02:34;6.43;;;4.70;;
20138;SDS011;10230;51.502;10.800;2023-04-15T04:05:00;7.07;;;4.90;;
20138;SDS011;10230;51.502;10.800;2023-04-15T04:07:26;7.77;;;4.53;;
20138;SDS011;10230;51.502;10.800;2023-04-15T04:09:53;6.67;;;4.77;;
20138;SDS011;10230;51.502;10.800;2023-04-15T04:12:19;7.60;;;3.93;;
20138;SDS011;10230;51.502;10.800;2023-04-15T04:14:45;7.50;;;4.33;;
20138;SDS011;10230;51.502;10.800;2023-04-15T04:17:11;6.90;;;4.97;;
20138;SDS011;10230;51.502;10.800;2023-04-15T04:19:37;7.10;;;5.40;;
20138;SDS011;10230;51.502;10.800;2023-04-15T04:22:03;7.73;;;4.97;;
20138;SDS011;10230;51.502;10.800;2023-04-15T04:24:29;5.67;;;4.20;;
20138;SDS011;10230;51.502;10.800;2023-04-15T04:26:55;6.50;;;3.80;;
20138;SDS011;10230;51.502;10.800;2023-04-15T04:29:22;6.27;;;4.13;;
20138;SDS011;10230;51.502;10.800;2023-04-15T04:31:50;7.33;;;4.10;;
20138;SDS011;10230;51.502;10.800;2023-04-15T04:34:17;6.23;;;3.80;;
20138;SDS011;10230;51.502;10.800;2023-04-15T04:36:43;7.27;;;4.07;;
20138;SDS011;10230;51.502;10.800;2023-04-15T04:39:09;6.00;;;4.60;;
20138;SDS011;10230;51.502;10.800;2023-04-15T04:41:35;6.70;;;4.03;;
20138;SDS011;10230;51.502;10.800;2023-04-15T04:44:01;6.23;;;4.03;;
20138;SDS011;10230;51.502;10.800;2023-04-15T04:46:27;5.93;;;4.10;;
20138;SDS011;10230;51.502;10.800;2023-04-15T04:48:53;5.27;;;3.50;;
20138;SDS011;10230;51.502;10.800;2023-04-15T04:51:19;6.57;;;4.37;;
20138;SDS011;10230;51.502;10.800;2023-04-15T04:53:45;7.53;;;4.90;;
20138;SDS011;10230;51.502;10.800;2023-04-15T04:56:11;5.70;;;4.00;;
20138;SDS011;10230;51.502;10.800;2023-04-15T04:58:37;6.57;;;3.80;;
20138;SDS011;10230;51.502;10.800;2023-04-15T05:01:03;5.63;;;3.03;;
20138;SDS011;10230;51.502;10.800;2023-04-15T05:03:29;5.97;;;3.57;;
20138;SDS011;10230;51.502;10.800;2023-04-15T05:05:55;5.13;;;3.50;;
20138;SDS011;10230;51.502;10.800;2023-04-15T05:08:22;5.30;;;3.40;;
20138;SDS011;10230;51.502;10.800;2023-04-15T05:10:48;4.80;;;2.90;;
20138;SDS011;10230;51.502;10.800;2023-04-15T05:13:14;4.93;;;3.80;;
20138;SDS011;10230;51.502;10.800;2023-04-15T05:15:40;5.87;;;3.60;;
20138;SDS011;10230;51.502;10.800;2023-04-15T05:18:07;5.37;;;3.53;;
20138;SDS011;10230;51.502;10.800;2023-04-15T05:20:33;5.83;;;3.60;;
20138;SDS011;10230;51.502;10.800;2023-04-15T05:22:59;4.60;;;3.40;;
20138;SDS011;10230;51.502;10.800;2023-04-15T05:25:25;6.07;;;3.33;;
20138;SDS011;10230;51.502;10.800;2023-04-15T05:27:51;5.90;;;3.70;;
20138;SDS011;10230;51.502;10.800;2023-04-15T05:30:17;5.57;;;3.43;;
20138;SDS011;10230;51.502;10.800;2023-04-15T05:32:43;4.20;;;2.70;;
20138;SDS011;10230;51.502;10.800;2023-04-15T05:35:09;6.27;;;3.70;;
20138;SDS011;10230;51.502;10.800;2023-04-15T05:37:35;4.37;;;3.43;;
20138;SDS011;10230;51.502;10.800;2023-04-15T05:40:01;4.53;;;3.20;;
20138;SDS011;10230;51.502;10.800;2023-04-15T05:42:28;6.53;;;4.37;;
20138;SDS011;10230;51.502;10.800;2023-04-15T05:44:54;6.10;;;4.00;;
20138;SDS011;10230;51.502;10.800;2023-04-15T05:47:21;4.70;;;3.30;;
20138;SDS011;10230;51.502;10.800;2023-04-15T05:49:47;5.87;;;3.40;;
20138;SDS011;10230;51.502;10.800;2023-04-15T05:52:13;5.97;;;3.63;;
20138;SDS011;10230;51.502;10.800;2023-04-15T05:54:39;5.50;;;3.63;;
20138;SDS011;10230;51.502;10.800;2023-04-15T05:57:05;4.10;;;3.20;;
20138;SDS011;10230;51.502;10.800;2023-04-15T05:59:32;4.60;;;3.30;;
20138;SDS011;10230;51.502;10.800;2023-04-15T06:01:58;6.83;;;3.20;;
20138;SDS011;10230;51.502;10.800;2023-04-15T06:04:24;5.40;;;2.87;;
20138;SDS011;10230;51.502;10.800;2023-04-15T06:06:50;5.23;;;3.80;;
20138;SDS011;10230;51.502;10.800;2023-04-15T06:09:16;5.30;;;3.50;;
20138;SDS011;10230;51.502;10.800;2023-04-15T06:11:42;4.43;;;2.90;;
20138;SDS011;10230;51.502;10.800;2023-04-15T06:14:08;5.53;;;3.40;;
20138;SDS011;10230;51.502;10.800;2023-04-15T06:16:34;4.17;;;3.07;;
20138;SDS011;10230;51.502;10.800;2023-04-15T06:19:00;5.17;;;2.87;;
20138;SDS011;10230;51.502;10.800;2023-04-15T06:21:26;4.93;;;3.43;;
20138;SDS011;10230;51.502;10.800;2023-04-15T06:23:52;5.40;;;3.50;;
20138;SDS011;10230;51.502;10.800;2023-04-15T06:26:18;3.97;;;2.70;;
20138;SDS011;10230;51.502;10.800;2023-04-15T06:28:44;5.13;;;2.90;;
20138;SDS011;10230;51.502;10.800;2023-04-15T06:31:10;4.47;;;3.00;;
20138;SDS011;10230;51.502;10.800;2023-04-15T06:33:36;5.00;;;2.70;;
20138;SDS011;10230;51.502;10.800;2023-04-15T06:36:03;4.83;;;3.10;;
20138;SDS011;10230;51.502;10.800;2023-04-15T06:38:29;11.00;;;3.83;;
20138;SDS011;10230;51.502;10.800;2023-04-15T06:40:55;5.10;;;3.47;;
20138;SDS011;10230;51.502;10.800;2023-04-15T06:43:22;4.33;;;2.80;;
20138;SDS011;10230;51.502;10.800;2023-04-15T06:45:48;5.00;;;3.60;;
20138;SDS011;10230;51.502;10.800;2023-04-15T06:48:14;5.67;;;3.80;;
20138;SDS011;10230;51.502;10.800;2023-04-15T06:50:41;4.90;;;3.37;;
20138;SDS011;10230;51.502;10.800;2023-04-15T06:53:07;4.07;;;2.73;;
20138;SDS011;10230;51.502;10.800;2023-04-15T06:55:33;4.10;;;3.10;;
20138;SDS011;10230;51.502;10.800;2023-04-15T06:57:59;4.37;;;3.13;;
20138;SDS011;10230;51.502;10.800;2023-04-15T07:00:26;5.60;;;3.40;;
20138;SDS011;10230;51.502;10.800;2023-04-15T07:02:52;3.93;;;2.60;;
20138;SDS011;10230;51.502;10.800;2023-04-15T07:05:19;8.27;;;5.57;;
20138;SDS011;10230;51.502;10.800;2023-04-15T07:07:45;5.33;;;3.00;;
20138;SDS011;10230;51.502;10.800;2023-04-15T07:10:11;4.37;;;2.87;;
20138;SDS011;10230;51.502;10.800;2023-04-15T07:12:38;6.20;;;3.93;;
20138;SDS011;10230;51.502;10.800;2023-04-15T07:15:05;4.97;;;3.43;;
20138;SDS011;10230;51.502;10.800;2023-04-15T07:17:31;3.20;;;2.40;;
20138;SDS011;10230;51.502;10.800;2023-04-15T07:19:58;3.33;;;2.60;;
20138;SDS011;10230;51.502;10.800;2023-04-15T07:22:24;4.27;;;2.93;;
20138;SDS011;10230;51.502;10.800;2023-04-15T07:24:50;5.37;;;3.00;;
20138;SDS011;10230;51.502;10.800;2023-04-15T07:27:16;5.83;;;4.07;;
20138;SDS011;10230;51.502;10.800;2023-04-15T07:29:42;7.80;;;4.07;;
20138;SDS011;10230;51.502;10.800;2023-04-15T07:32:08;4.07;;;2.80;;
20138;SDS011;10230;51.502;10.800;2023-04-15T07:34:34;3.93;;;2.83;;
20138;SDS011;10230;51.502;10.800;2023-04-15T07:37:01;4.40;;;3.20;;
20138;SDS011;10230;51.502;10.800;2023-04-15T07:39:27;3.93;;;3.00;;
20138;SDS011;10230;51.502;10.800;2023-04-15T07:41:54;3.50;;;2.27;;
20138;SDS011;10230;51.502;10.800;2023-04-15T07:44:20;4.47;;;2.57;;
20138;SDS011;10230;51.502;10.800;2023-04-15T07:46:46;3.63;;;2.90;;
20138;SDS011;10230;51.502;10.800;2023-04-15T07:49:12;5.17;;;3.30;;
20138;SDS011;10230;51.502;10.800;2023-04-15T07:51:38;4.30;;;2.83;;
20138;SDS011;10230;51.502;10.800;2023-04-15T07:54:04;3.60;;;2.77;;
20138;SDS011;10230;51.502;10.800;2023-04-15T07:56:30;2.63;;;2.00;;
20138;SDS011;10230;51.502;10.800;2023-04-15T07:58:56;5.60;;;3.43;;
20138;SDS011;10230;51.502;10.800;2023-04-15T08:01:22;3.57;;;2.50;;
20138;SDS011;10230;51.502;10.800;2023-04-15T08:03:48;3.43;;;2.53;;
20138;SDS011;10230;51.502;10.800;2023-04-15T08:06:15;3.87;;;2.60;;
20138;SDS011;10230;51.502;10.800;2023-04-15T08:08:41;5.57;;;2.80;;
20138;SDS011;10230;51.502;10.800;2023-04-15T08:11:08;3.67;;;2.60;;
20138;SDS011;10230;51.502;10.800;2023-04-15T08:13:34;3.50;;;2.70;;
20138;SDS011;10230;51.502;10.800;2023-04-15T08:16:13;3.53;;;2.67;;
20138;SDS011;10230;51.502;10.800;2023-04-15T08:18:40;4.27;;;2.77;;
20138;SDS011;10230;51.502;10.800;2023-04-15T08:21:06;2.80;;;2.20;;
20138;SDS011;10230;51.502;10.800;2023-04-15T08:23:32;4.03;;;3.00;;
20138;SDS011;10230;51.502;10.800;2023-04-15T08:25:58;5.37;;;3.10;;
20138;SDS011;10230;51.502;10.800;2023-04-15T08:28:24;4.80;;;2.80;;
20138;SDS011;10230;51.502;10.800;2023-04-15T08:30:53;3.40;;;2.63;;
20138;SDS011;10230;51.502;10.800;2023-04-15T08:33:20;4.00;;;2.57;;
20138;SDS011;10230;51.502;10.800;2023-04-15T08:35:46;2.97;;;2.40;;
20138;SDS011;10230;51.502;10.800;2023-04-15T08:38:12;3.00;;;2.40;;
20138;SDS011;10230;51.502;10.800;2023-04-15T08:40:41;3.30;;;2.40;;
20138;SDS011;10230;51.502;10.800;2023-04-15T08:43:08;3.07;;;1.97;;
20138;SDS011;10230;51.502;10.800;2023-04-15T08:45:36;3.40;;;2.73;;
20138;SDS011;10230;51.502;10.800;2023-04-15T08:48:03;3.50;;;2.47;;
20138;SDS011;10230;51.502;10.800;2023-04-15T08:50:30;3.63;;;2.77;;
20138;SDS011;10230;51.502;10.800;2023-04-15T08:52:59;3.70;;;2.80;;
20138;SDS011;10230;51.502;10.800;2023-04-15T08:55:27;3.93;;;2.63;;
20138;SDS011;10230;51.502;10.800;2023-04-15T08:57:54;3.57;;;3.07;;
20138;SDS011;10230;51.502;10.800;2023-04-15T09:00:21;3.43;;;2.53;;
20138;SDS011;10230;51.502;10.800;2023-04-15T09:02:47;3.30;;;2.40;;
20138;SDS011;10230;51.502;10.800;2023-04-15T09:05:14;4.70;;;3.33;;
20138;SDS011;10230;51.502;10.800;2023-04-15T09:07:40;3.33;;;2.50;;
20138;SDS011;10230;51.502;10.800;2023-04-15T09:10:06;3.30;;;2.60;;
20138;SDS011;10230;51.502;10.800;2023-04-15T09:12:33;3.43;;;2.60;;
20138;SDS011;10230;51.502;10.800;2023-04-15T09:15:01;2.53;;;2.00;;
20138;SDS011;10230;51.502;10.800;2023-04-15T09:17:27;3.67;;;2.53;;
20138;SDS011;10230;51.502;10.800;2023-04-15T09:20:14;3.57;;;2.77;;
20138;SDS011;10230;51.502;10.800;2023-04-15T09:22:39;3.37;;;2.17;;
20138;SDS011;10230;51.502;10.800;2023-04-15T09:25:27;3.37;;;2.57;;
20138;SDS011;10230;51.502;10.800;2023-04-15T09:27:53;2.80;;;1.97;;
20138;SDS011;10230;51.502;10.800;2023-04-15T09:30:20;3.20;;;1.90;;
20138;SDS011;10230;51.502;10.800;2023-04-15T09:35:19;2.50;;;1.30;;
20138;SDS011;10230;51.502;10.800;2023-04-15T09:37:45;1.33;;;1.17;;
20138;SDS011;10230;51.502;10.800;2023-04-15T09:40:11;1.33;;;1.13;;
20138;SDS011;10230;51.502;10.800;2023-04-15T09:42:53;2.57;;;1.80;;
20138;SDS011;10230;51.502;10.800;2023-04-15T09:45:20;0.83;;;0.70;;
20138;SDS011;10230;51.502;10.800;2023-04-15T09:47:46;1.47;;;0.83;;
20138;SDS011;10230;51.502;10.800;2023-04-15T09:50:12;1.23;;;1.13;;
20138;SDS011;10230;51.502;10.800;2023-04-15T09:52:42;1.10;;;0.73;;
20138;SDS011;10230;51.502;10.800;2023-04-15T09:55:09;1.20;;;0.97;;
20138;SDS011;10230;51.502;10.800;2023-04-15T09:57:35;0.90;;;0.83;;
20138;SDS011;10230;51.502;10.800;2023-04-15T10:00:03;1.30;;;1.20;;
20138;SDS011;10230;51.502;10.800;2023-04-15T10:02:29;0.87;;;0.87;;
20138;SDS011;10230;51.502;10.800;2023-04-15T10:04:55;1.23;;;1.03;;
20138;SDS011;10230;51.502;10.800;2023-04-15T10:07:22;1.13;;;1.03;;
20138;SDS011;10230;51.502;10.800;2023-04-15T10:09:51;1.37;;;1.27;;
20138;SDS011;10230;51.502;10.800;2023-04-15T10:12:18;1.77;;;1.40;;
20138;SDS011;10230;51.502;10.800;2023-04-15T10:14:47;2.20;;;1.40;;
20138;SDS011;10230;51.502;10.800;2023-04-15T10:17:13;1.27;;;1.10;;
20138;SDS011;10230;51.502;10.800;2023-04-15T10:19:42;1.90;;;1.40;;
20138;SDS011;10230;51.502;10.800;2023-04-15T10:22:09;1.90;;;1.57;;
20138;SDS011;10230;51.502;10.800;2023-04-15T10:24:35;3.93;;;2.70;;
20138;SDS011;10230;51.502;10.800;2023-04-15T10:27:04;3.20;;;2.60;;
20138;SDS011;10230;51.502;10.800;2023-04-15T10:29:31;3.30;;;2.60;;
20138;SDS011;10230;51.502;10.800;2023-04-15T10:31:58;3.87;;;3.03;;
20138;SDS011;10230;51.502;10.800;2023-04-15T10:34:24;3.83;;;3.07;;
20138;SDS011;10230;51.502;10.800;2023-04-15T10:36:50;4.43;;;3.07;;
20138;SDS011;10230;51.502;10.800;2023-04-15T10:39:39;5.20;;;2.80;;
20138;SDS011;10230;51.502;10.800;2023-04-15T10:42:09;4.40;;;2.87;;
20138;SDS011;10230;51.502;10.800;2023-04-15T10:44:36;4.03;;;2.63;;
20138;SDS011;10230;51.502;10.800;2023-04-15T10:47:09;4.57;;;3.33;;
20138;SDS011;10230;51.502;10.800;2023-04-15T10:49:41;5.33;;;3.20;;
20138;SDS011;10230;51.502;10.800;2023-04-15T10:52:09;5.70;;;3.53;;
20138;SDS011;10230;51.502;10.800;2023-04-15T10:54:35;5.53;;;3.37;;
20138;SDS011;10230;51.502;10.800;2023-04-15T10:59:37;5.67;;;4.00;;
20138;SDS011;10230;51.502;10.800;2023-04-15T11:02:06;4.80;;;3.13;;
20138;SDS011;10230;51.502;10.800;2023-04-15T11:07:32;5.10;;;3.80;;
20138;SDS011;10230;51.502;10.800;2023-04-15T11:09:59;5.57;;;3.40;;
20138;SDS011;10230;51.502;10.800;2023-04-15T11:12:34;4.43;;;3.20;;
20138;SDS011;10230;51.502;10.800;2023-04-15T11:17:46;4.20;;;3.50;;
20138;SDS011;10230;51.502;10.800;2023-04-15T11:20:15;3.83;;;3.03;;
20138;SDS011;10230;51.502;10.800;2023-04-15T11:22:49;4.80;;;3.40;;
20138;SDS011;10230;51.502;10.800;2023-04-15T11:25:28;5.80;;;3.90;;
20138;SDS011;10230;51.502;10.800;2023-04-15T11:27:55;7.93;;;5.00;;
20138;SDS011;10230;51.502;10.800;2023-04-15T11:30:22;5.97;;;4.17;;
20138;SDS011;10230;51.502;10.800;2023-04-15T11:32:48;4.90;;;3.83;;
20138;SDS011;10230;51.502;10.800;2023-04-15T11:35:15;5.00;;;3.47;;
20138;SDS011;10230;51.502;10.800;2023-04-15T11:37:42;6.67;;;4.07;;
20138;SDS011;10230;51.502;10.800;2023-04-15T11:40:08;7.13;;;4.60;;
20138;SDS011;10230;51.502;10.800;2023-04-15T11:42:35;7.13;;;4.70;;
20138;SDS011;10230;51.502;10.800;2023-04-15T11:45:11;6.17;;;4.53;;
20138;SDS011;10230;51.502;10.800;2023-04-15T11:47:37;8.27;;;4.30;;
20138;SDS011;10230;51.502;10.800;2023-04-15T11:50:13;6.90;;;4.70;;
20138;SDS011;10230;51.502;10.800;2023-04-15T11:52:40;8.87;;;5.37;;
20138;SDS011;10230;51.502;10.800;2023-04-15T11:55:06;5.70;;;3.90;;
20138;SDS011;10230;51.502;10.800;2023-04-15T11:57:33;5.73;;;4.30;;
20138;SDS011;10230;51.502;10.800;2023-04-15T12:00:00;6.60;;;4.60;;
20138;SDS011;10230;51.502;10.800;2023-04-15T12:02:29;7.47;;;4.80;;
20138;SDS011;10230;51.502;10.800;2023-04-15T12:05:07;7.17;;;4.67;;
20138;SDS011;10230;51.502;10.800;2023-04-15T12:07:55;8.07;;;4.90;;
20138;SDS011;10230;51.502;10.800;2023-04-15T12:10:19;7.60;;;4.73;;
20138;SDS011;10230;51.502;10.800;2023-04-15T12:12:48;6.97;;;4.90;;
20138;SDS011;10230;51.502;10.800;2023-04-15T12:15:14;5.73;;;3.40;;
20138;SDS011;10230;51.502;10.800;2023-04-15T12:17:40;5.77;;;3.93;;
20138;SDS011;10230;51.502;10.800;2023-04-15T12:20:06;8.13;;;5.27;;
20138;SDS011;10230;51.502;10.800;2023-04-15T12:22:36;7.37;;;4.20;;
20138;SDS011;10230;51.502;10.800;2023-04-15T12:25:02;5.43;;;3.70;;
20138;SDS011;10230;51.502;10.800;2023-04-15T12:27:30;6.70;;;4.03;;
20138;SDS011;10230;51.502;10.800;2023-04-15T12:30:05;10.03;;;5.53;;
20138;SDS011;10230;51.502;10.800;2023-04-15T12:32:35;9.20;;;5.57;;
20138;SDS011;10230;51.502;10.800;2023-04-15T12:35:01;8.47;;;5.60;;
20138;SDS011;10230;51.502;10.800;2023-04-15T12:37:27;7.50;;;4.00;;
20138;SDS011;10230;51.502;10.800;2023-04-15T12:39:53;6.40;;;4.13;;
20138;SDS011;10230;51.502;10.800;2023-04-15T12:42:19;8.37;;;5.23;;
20138;SDS011;10230;51.502;10.800;2023-04-15T12:44:46;8.50;;;5.33;;
20138;SDS011;10230;51.502;10.800;2023-04-15T12:47:12;8.60;;;5.27;;
20138;SDS011;10230;51.502;10.800;2023-04-15T12:49:38;8.10;;;4.97;;
20138;SDS011;10230;51.502;10.800;2023-04-15T12:52:05;7.13;;;4.80;;
20138;SDS011;10230;51.502;10.800;2023-04-15T12:54:31;10.53;;;6.70;;
20138;SDS011;10230;51.502;10.800;2023-04-15T12:56:58;9.27;;;6.03;;
20138;SDS011;10230;51.502;10.800;2023-04-15T12:59:24;7.57;;;4.80;;
20138;SDS011;10230;51.502;10.800;2023-04-15T13:01:51;6.23;;;4.50;;
20138;SDS011;10230;51.502;10.800;2023-04-15T13:04:17;10.23;;;5.37;;
20138;SDS011;10230;51.502;10.800;2023-04-15T13:06:43;8.33;;;5.40;;
20138;SDS011;10230;51.502;10.800;2023-04-15T13:09:09;8.00;;;4.93;;
20138;SDS011;10230;51.502;10.800;2023-04-15T13:11:35;6.80;;;4.60;;
20138;SDS011;10230;51.502;10.800;2023-04-15T13:14:03;8.33;;;4.60;;
20138;SDS011;10230;51.502;10.800;2023-04-15T13:16:29;8.63;;;4.90;;
20138;SDS011;10230;51.502;10.800;2023-04-15T13:18:56;7.73;;;5.20;;
20138;SDS011;10230;51.502;10.800;2023-04-15T13:21:22;7.70;;;4.90;;
20138;SDS011;10230;51.502;10.800;2023-04-15T13:23:48;10.83;;;6.03;;
20138;SDS011;10230;51.502;10.800;2023-04-15T13:26:17;9.33;;;5.53;;
20138;SDS011;10230;51.502;10.800;2023-04-15T13:28:43;6.37;;;3.50;;
20138;SDS011;10230;51.502;10.800;2023-04-15T13:31:10;7.47;;;4.20;;
20138;SDS011;10230;51.502;10.800;2023-04-15T13:33:36;7.20;;;4.60;;
20138;SDS011;10230;51.502;10.800;2023-04-15T13:36:02;5.20;;;4.13;;
20138;SDS011;10230;51.502;10.800;2023-04-15T13:38:28;8.80;;;4.27;;
20138;SDS011;10230;51.502;10.800;2023-04-15T13:40:54;9.00;;;4.63;;
20138;SDS011;10230;51.502;10.800;2023-04-15T13:43:20;8.00;;;4.67;;
20138;SDS011;10230;51.502;10.800;2023-04-15T13:45:46;7.70;;;4.63;;
20138;SDS011;10230;51.502;10.800;2023-04-15T13:48:12;8.30;;;5.57;;
20138;SDS011;10230;51.502;10.800;2023-04-15T13:50:38;7.13;;;4.80;;
20138;SDS011;10230;51.502;10.800;2023-04-15T13:53:09;7.50;;;4.90;;
20138;SDS011;10230;51.502;10.800;2023-04-15T13:55:35;8.43;;;5.13;;
20138;SDS011;10230;51.502;10.800;2023-04-15T13:58:05;6.80;;;4.43;;
20138;SDS011;10230;51.502;10.800;2023-04-15T14:00:31;6.57;;;4.77;;
20138;SDS011;10230;51.502;10.800;2023-04-15T14:02:57;5.77;;;4.27;;
20138;SDS011;10230;51.502;10.800;2023-04-15T14:05:23;7.37;;;5.23;;
20138;SDS011;10230;51.502;10.800;2023-04-15T14:07:49;6.43;;;4.20;;
20138;SDS011;10230;51.502;10.800;2023-04-15T14:10:15;7.07;;;4.60;;
20138;SDS011;10230;51.502;10.800;2023-04-15T14:12:41;7.70;;;5.00;;
20138;SDS011;10230;51.502;10.800;2023-04-15T14:15:07;8.13;;;4.33;;
20138;SDS011;10230;51.502;10.800;2023-04-15T14:17:33;7.63;;;4.77;;
20138;SDS011;10230;51.502;10.800;2023-04-15T14:19:59;7.70;;;4.80;;
20138;SDS011;10230;51.502;10.800;2023-04-15T14:22:25;6.63;;;4.10;;
20138;SDS011;10230;51.502;10.800;2023-04-15T14:24:51;6.00;;;4.23;;
20138;SDS011;10230;51.502;10.800;2023-04-15T14:27:19;6.90;;;4.47;;
20138;SDS011;10230;51.502;10.800;2023-04-15T14:29:45;6.27;;;4.13;;
20138;SDS011;10230;51.502;10.800;2023-04-15T14:32:11;5.73;;;3.80;;
20138;SDS011;10230;51.502;10.800;2023-04-15T14:34:37;4.97;;;3.57;;
20138;SDS011;10230;51.502;10.800;2023-04-15T14:37:03;5.50;;;3.63;;
20138;SDS011;10230;51.502;10.800;2023-04-15T14:39:29;7.43;;;3.97;;
20138;SDS011;10230;51.502;10.800;2023-04-15T14:41:55;6.17;;;3.97;;